Time;durP1;ratioP1;P1;durP2;ratioP2;P2;SDS_P1;SDS_P2;PMS_P1;PMS_P2;Temp;Humidity;BMP_temperature;BMP_pressure;BME280_temperature;BME280_humidity;BME280_pressure;Samples;Min_cycle;Max_cycle;Signal;HPM_P1;HPM_P2
2022/06/09 00:10:39;;;;;;;;;;;;;;;16.34;74.16;100213.25;4993299;28;19984;-92
2022/06/09 00:16:20;;;;;;;;;;;;;;;16.38;74.80;100227.22;4977877;28;20332;-92
2022/06/09 00:21:48;;;;;;;;;;;;;;;16.40;75.19;100228.66;4996276;28;20008;-92
2022/06/09 00:24:24;;;;;;;;;;;;;;;16.40;75.42;100233.28;4976917;28;19910;-91
2022/06/09 00:32:39;;;;;;;;;;;;;;;16.20;77.01;100225.13;4980488;28;19929;-93
2022/06/09 00:41:25;;;;;;;;;;;;;;;16.28;76.66;100232.25;4976837;28;19961;-92
2022/06/09 00:47:23;;;;;;;;;;;;;;;16.30;76.41;100241.00;4980280;28;19920;-92
2022/06/09 00:56:06;;;;;;;;;;;;;;;16.20;75.98;100242.25;4976210;28;19977;-90
2022/06/09 01:05:29;;;;;;;;;;;;;;;16.16;74.54;100230.16;4897114;29;19916;-91
2022/06/09 01:08:01;;;;;;;;;;;;;;;16.15;73.96;100219.50;4899858;29;19928;-94
2022/06/09 01:10:43;;;;;;;;;;;;;;;16.11;74.01;100221.81;4894165;29;19970;-91
2022/06/09 01:13:15;;;;;;;;;;;;;;;15.89;75.56;100231.16;4884483;29;19916;-92
2022/06/09 01:18:51;;;;;;;;;;;;;;;15.90;75.85;100227.41;4952477;28;19922;-92
2022/06/09 01:24:58;;;;;;;;;;;;;;;15.89;76.22;100231.16;4916450;29;19918;-93
2022/06/09 01:27:42;;;;;;;;;;;;;;;15.91;77.19;100231.78;4925980;29;20383;-92
2022/06/09 01:30:26;;;;;;;;;;;;;;;15.86;77.47;100223.44;4934818;29;20433;-91
2022/06/09 01:32:56;;;;;;;;;;;;;;;15.74;78.23;100237.59;4964105;28;20311;-92
2022/06/09 01:35:34;;;;;;;;;;;;;;;15.89;77.57;100228.44;4979366;28;19918;-93
2022/06/09 01:38:08;;;;;;;;;;;;;;;15.82;77.78;100244.69;4957728;28;19918;-92
2022/06/09 01:40:34;;;;;;;;;;;;;;;15.73;78.44;100243.22;4959203;28;19914;-92
2022/06/09 01:43:07;;;;;;;;;;;;;;;15.85;77.61;100240.72;4969430;28;20295;-92
2022/06/09 01:45:53;;;;;;;;;;;;;;;15.83;77.55;100236.38;4981274;28;19918;-92
2022/06/09 01:48:20;;;;;;;;;;;;;;;15.80;77.99;100241.34;4963567;28;19977;-92
2022/06/09 01:50:52;;;;;;;;;;;;;;;15.88;76.98;100245.75;4958585;28;20000;-92
2022/06/09 01:53:23;;;;;;;;;;;;;;;15.87;76.71;100239.47;4972046;28;20387;-93
2022/06/09 01:55:51;;;;;;;;;;;;;;;15.87;76.47;100239.47;4977024;28;20089;-93
2022/06/09 01:58:25;;;;;;;;;;;;;;;15.89;76.56;100236.56;4968169;28;20009;-92
2022/06/09 02:00:55;;;;;;;;;;;;;;;15.85;76.40;100236.16;4942028;28;19980;-93
2022/06/09 02:03:30;;;;;;;;;;;;;;;15.87;76.27;100234.06;4944098;28;19965;-93
2022/06/09 02:06:12;;;;;;;;;;;;;;;15.82;76.83;100242.81;4940451;28;19926;-93
2022/06/09 02:09:23;;;;;;;;;;;;;;;15.72;77.19;100233.41;4932615;28;19981;-93
2022/06/09 02:12:15;;;;;;;;;;;;;;;15.71;77.32;100240.72;4983591;28;19918;-92
2022/06/09 02:14:44;;;;;;;;;;;;;;;15.73;77.63;100238.66;4965793;28;19918;-93
2022/06/09 02:17:14;;;;;;;;;;;;;;;15.72;77.46;100225.28;4980459;28;19906;-92
2022/06/09 02:19:52;;;;;;;;;;;;;;;15.73;77.47;100222.38;4995908;28;19989;-91
2022/06/09 02:22:19;;;;;;;;;;;;;;;15.61;77.93;100218.56;4974072;28;19910;-95
2022/06/09 02:24:52;;;;;;;;;;;;;;;15.61;77.79;100218.56;4980728;28;19906;-93
2022/06/09 02:27:19;;;;;;;;;;;;;;;15.54;78.53;100223.13;4977202;28;19910;-92
2022/06/09 02:29:44;;;;;;;;;;;;;;;15.38;79.25;100219.75;4955325;28;19906;-93
2022/06/09 02:32:11;;;;;;;;;;;;;;;15.38;79.33;100214.34;4968573;28;19949;-93
2022/06/09 02:34:40;;;;;;;;;;;;;;;15.35;79.48;100222.00;4970333;28;19918;-92
2022/06/09 02:37:06;;;;;;;;;;;;;;;15.41;78.98;100232.88;4964288;28;19918;-93
2022/06/09 02:39:37;;;;;;;;;;;;;;;15.39;78.74;100239.53;4961471;28;19921;-92
2022/06/09 02:42:08;;;;;;;;;;;;;;;15.24;79.26;100238.84;4974471;28;19964;-95
2022/06/09 02:44:36;;;;;;;;;;;;;;;15.27;78.98;100238.47;4963049;28;19914;-94
2022/06/09 02:47:11;;;;;;;;;;;;;;;15.25;78.67;100237.81;4975978;28;19925;-95
2022/06/09 02:50:02;;;;;;;;;;;;;;;15.35;78.82;100236.38;4961400;28;19929;-94
2022/06/09 02:52:41;;;;;;;;;;;;;;;15.33;78.89;100237.63;4962892;28;19917;-93
2022/06/09 02:55:08;;;;;;;;;;;;;;;15.36;78.70;100234.53;4981882;28;19914;-93
2022/06/09 02:58:03;;;;;;;;;;;;;;;15.38;78.40;100233.28;4986743;28;19921;-93
2022/06/09 03:00:35;;;;;;;;;;;;;;;15.35;78.53;100220.13;4959542;28;20005;-95
2022/06/09 03:03:05;;;;;;;;;;;;;;;15.41;77.89;100221.22;4961536;28;20418;-95
2022/06/09 03:05:41;;;;;;;;;;;;;;;15.49;77.43;100220.19;4970187;28;20413;-94
2022/06/09 03:08:08;;;;;;;;;;;;;;;15.51;77.37;100218.13;4979760;28;19914;-91
2022/06/09 03:10:38;;;;;;;;;;;;;;;15.54;77.44;100217.69;4992411;28;19916;-91
2022/06/09 03:13:05;;;;;;;;;;;;;;;15.60;77.35;100215.00;4999398;28;19933;-92
2022/06/09 03:15:30;;;;;;;;;;;;;;;15.65;77.17;100221.69;4963671;28;19914;-92
2022/06/09 03:17:59;;;;;;;;;;;;;;;15.68;77.23;100208.56;4963782;28;20001;-93
2022/06/09 03:20:26;;;;;;;;;;;;;;;15.80;76.70;100206.97;4984467;28;19914;-94
2022/06/09 03:23:34;;;;;;;;;;;;;;;15.87;76.54;100200.69;4973612;28;19937;-94
2022/06/09 03:26:42;;;;;;;;;;;;;;;15.74;77.82;100213.19;4970545;28;19918;-94
2022/06/09 03:29:17;;;;;;;;;;;;;;;15.94;77.34;100206.97;4964576;28;19918;-95
2022/06/09 03:31:51;;;;;;;;;;;;;;;16.00;77.59;100204.25;4971484;28;19918;-93
2022/06/09 03:34:27;;;;;;;;;;;;;;;16.08;77.10;100205.09;4995495;28;19922;-94
2022/06/09 03:37:06;;;;;;;;;;;;;;;16.13;77.05;100206.16;4981793;28;19906;-96
2022/06/09 03:39:51;;;;;;;;;;;;;;;16.21;76.68;100203.22;4960909;28;19906;-95
2022/06/09 03:42:34;;;;;;;;;;;;;;;16.24;76.60;100200.09;4984232;28;19918;-95
2022/06/09 03:45:25;;;;;;;;;;;;;;;16.35;76.29;100205.94;4971675;28;19918;-93
2022/06/09 03:47:52;;;;;;;;;;;;;;;16.18;76.70;100205.53;4958107;28;20017;-93
2022/06/09 03:50:27;;;;;;;;;;;;;;;16.32;76.71;100203.63;4953489;28;19918;-94
2022/06/09 03:52:55;;;;;;;;;;;;;;;16.39;76.64;100204.50;4956582;28;20324;-94
2022/06/09 03:55:43;;;;;;;;;;;;;;;16.55;76.03;100204.03;4964410;28;19972;-95
2022/06/09 03:58:11;;;;;;;;;;;;;;;16.66;75.87;100200.66;4974367;28;19918;-92
2022/06/09 04:00:53;;;;;;;;;;;;;;;16.71;76.23;100205.47;4965903;28;19985;-94
2022/06/09 04:03:22;;;;;;;;;;;;;;;17.07;75.17;100207.69;4962022;28;19918;-95
2022/06/09 04:05:49;;;;;;;;;;;;;;;17.39;73.91;100194.16;4961358;28;19918;-95
2022/06/09 04:08:15;;;;;;;;;;;;;;;17.58;73.63;100191.56;4981370;28;20010;-92
2022/06/09 04:10:56;;;;;;;;;;;;;;;17.82;73.18;100190.81;4976518;28;19957;-94
2022/06/09 04:13:40;;;;;;;;;;;;;;;18.02;71.87;100195.25;4973617;28;19918;-95
2022/06/09 04:16:23;;;;;;;;;;;;;;;18.31;71.58;100197.31;4990362;28;20000;-90
2022/06/09 04:19:20;;;;;;;;;;;;;;;18.55;70.81;100201.06;4956152;28;19921;-94
2022/06/09 04:21:47;;;;;;;;;;;;;;;18.79;69.94;100204.00;4989648;28;19922;-91
2022/06/09 04:24:15;;;;;;;;;;;;;;;18.76;69.18;100205.28;4961368;28;19906;-90
2022/06/09 04:26:52;;;;;;;;;;;;;;;19.05;68.45;100212.94;4978775;28;20683;-92
2022/06/09 04:29:18;;;;;;;;;;;;;;;19.21;67.81;100211.50;4971692;28;19989;-95
2022/06/09 04:31:48;;;;;;;;;;;;;;;19.41;67.51;100209.34;4937588;28;20334;-93
2022/06/09 04:34:16;;;;;;;;;;;;;;;19.60;66.87;100212.88;4949849;28;19918;-93
2022/06/09 04:37:02;;;;;;;;;;;;;;;19.73;65.88;100218.13;4958697;29;19973;-96
2022/06/09 04:39:36;;;;;;;;;;;;;;;19.96;65.23;100220.09;4940428;29;19938;-93
2022/06/09 04:42:08;;;;;;;;;;;;;;;20.16;64.12;100213.53;4956449;29;19959;-93
2022/06/09 04:44:52;;;;;;;;;;;;;;;20.32;63.23;100210.09;4958176;28;20008;-91
2022/06/09 04:47:46;;;;;;;;;;;;;;;20.33;62.94;100211.75;4958211;28;19923;-92
2022/06/09 04:50:20;;;;;;;;;;;;;;;20.41;62.61;100211.38;4959683;28;19922;-93
2022/06/09 04:53:08;;;;;;;;;;;;;;;20.43;62.35;100203.78;4962054;28;20017;-95
2022/06/09 04:55:41;;;;;;;;;;;;;;;20.57;62.52;100223.53;4968158;28;19921;-93
2022/06/09 04:58:07;;;;;;;;;;;;;;;20.69;62.40;100220.81;4969377;29;19915;-93
2022/06/09 05:01:15;;;;;;;;;;;;;;;;;;;;;
2022/06/09 05:03:44;;;;;;;;;;;;;;;20.92;61.83;100228.16;4947309;29;20010;-89
2022/06/09 05:06:22;;;;;;;;;;;;;;;21.05;62.02;100230.63;4939674;29;19918;-92
2022/06/09 05:08:55;;;;;;;;;;;;;;;21.19;61.80;100233.06;4908762;29;19968;-91
2022/06/09 05:14:38;;;;;;;;;;;;;;;21.61;59.80;100235.59;4974909;28;19922;-92
2022/06/09 05:17:12;;;;;;;;;;;;;;;21.83;59.28;100235.75;4976251;28;19937;-93
2022/06/09 05:20:00;;;;;;;;;;;;;;;21.95;58.95;100241.97;4974001;28;19996;-91
2022/06/09 05:22:38;;;;;;;;;;;;;;;22.18;58.75;100229.25;4967115;29;19938;-91
2022/06/09 05:25:08;;;;;;;;;;;;;;;22.28;57.88;100230.25;4956156;28;19949;-90
2022/06/09 05:30:42;;;;;;;;;;;;;;;22.41;57.08;100234.59;4865149;29;19920;-91
2022/06/09 05:33:10;;;;;;;;;;;;;;;22.63;56.76;100225.59;4875867;29;19920;-90
2022/06/09 05:35:47;;;;;;;;;;;;;;;22.94;55.53;100226.84;4911164;29;19923;-91
2022/06/09 05:46:28;;;;;;;;;;;;;;;23.75;53.53;100218.00;4915091;29;21668;-90
2022/06/09 05:48:59;;;;;;;;;;;;;;;24.04;52.61;100215.81;4885652;29;19919;-91
2022/06/09 05:51:29;;;;;;;;;;;;;;;24.32;51.61;100220.16;4909358;29;19918;-88
2022/06/09 05:54:00;;;;;;;;;;;;;;;24.54;51.82;100224.75;4912742;29;19919;-88
2022/06/09 05:56:28;;;;;;;;;;;;;;;24.63;50.94;100221.25;4889211;29;19920;-88
2022/06/09 05:58:55;;;;;;;;;;;;;;;24.64;50.54;100217.41;4883993;29;19979;-89
2022/06/09 06:01:23;;;;;;;;;;;;;;;24.75;50.12;100225.72;4916027;29;19950;-89
2022/06/09 06:03:52;;;;;;;;;;;;;;;24.93;50.12;100222.50;4927875;29;19925;-89
2022/06/09 06:06:34;;;;;;;;;;;;;;;25.00;49.91;100216.78;4925118;29;19919;-90
2022/06/09 06:09:02;;;;;;;;;;;;;;;25.08;48.77;100218.22;4905365;29;19922;-90
2022/06/09 06:11:31;;;;;;;;;;;;;;;25.24;48.14;100212.53;4914059;29;19969;-93
2022/06/09 06:14:04;;;;;;;;;;;;;;;25.47;47.20;100215.88;4899173;29;19931;-90
2022/06/09 06:16:30;;;;;;;;;;;;;;;25.55;46.42;100215.38;4930099;29;19919;-88
2022/06/09 06:19:10;;;;;;;;;;;;;;;25.64;45.97;100210.16;4914779;29;19944;-89
2022/06/09 06:30:23;;;;;;;;;;;;;;;26.39;43.19;100196.75;5084202;23;19922;-93
2022/06/09 06:32:50;;;;;;;;;;;;;;;26.67;42.35;100200.84;4989011;28;19929;-91
2022/06/09 06:35:18;;;;;;;;;;;;;;;27.10;42.25;100201.25;4975419;28;20397;-90
2022/06/09 06:37:47;;;;;;;;;;;;;;;27.03;42.73;100206.25;4980762;28;20345;-91
2022/06/09 06:40:14;;;;;;;;;;;;;;;26.67;43.67;100203.63;4982654;28;19924;-92
2022/06/09 06:42:41;;;;;;;;;;;;;;;26.86;43.05;100203.84;4997181;28;19917;-90
2022/06/09 06:45:07;;;;;;;;;;;;;;;26.52;43.77;100198.09;4980914;28;19920;-86
2022/06/09 06:47:56;;;;;;;;;;;;;;;26.53;43.75;100203.34;4988288;28;19918;-93
2022/06/09 06:50:26;;;;;;;;;;;;;;;26.61;44.46;100214.94;5009879;28;19917;-88
2022/06/09 06:53:01;;;;;;;;;;;;;;;26.23;44.30;100209.69;4996933;28;21266;-89
2022/06/09 06:58:16;;;;;;;;;;;;;;;25.93;44.63;100221.53;4998093;28;19917;-85
2022/06/09 07:00:42;;;;;;;;;;;;;;;26.10;44.96;100207.47;4980585;28;20398;-85
2022/06/09 07:03:21;;;;;;;;;;;;;;;25.67;45.98;100217.88;4973147;28;19953;-91
2022/06/09 07:06:09;;;;;;;;;;;;;;;26.02;45.26;100206.13;4998229;28;19990;-92
2022/06/09 07:08:39;;;;;;;;;;;;;;;26.27;45.18;100216.31;4985576;28;19960;-93
2022/06/09 07:11:09;;;;;;;;;;;;;;;26.70;43.89;100210.50;4981178;28;20393;-95
2022/06/09 07:13:36;;;;;;;;;;;;;;;26.82;43.51;100210.19;4999385;28;19914;-90
2022/06/09 07:16:01;;;;;;;;;;;;;;;27.03;43.32;100206.25;5005705;28;19917;-88
2022/06/09 07:18:32;;;;;;;;;;;;;;;27.04;43.29;100207.91;5006301;28;19977;-87
2022/06/09 07:20:58;;;;;;;;;;;;;;;27.26;42.85;100210.34;4963786;28;19918;-89
2022/06/09 07:23:26;;;;;;;;;;;;;;;27.21;43.35;100215.06;4985866;28;19922;-86
2022/06/09 07:25:53;;;;;;;;;;;;;;;27.06;43.58;100211.19;4988983;28;19918;-87
2022/06/09 07:28:19;;;;;;;;;;;;;;;26.88;43.85;100220.13;5004072;28;19977;-88
2022/06/09 07:30:46;;;;;;;;;;;;;;;27.02;44.69;100218.41;5003293;28;19978;-90
2022/06/09 07:33:12;;;;;;;;;;;;;;;25.94;46.98;100225.91;4955679;28;19917;-88
2022/06/09 07:35:44;;;;;;;;;;;;;;;25.81;47.92;100220.94;4974236;28;19976;-95
2022/06/09 07:38:13;;;;;;;;;;;;;;;25.66;47.38;100218.97;4965775;28;19922;-87
2022/06/09 07:40:42;;;;;;;;;;;;;;;25.49;48.06;100214.50;4957368;28;19926;-86
2022/06/09 07:43:07;;;;;;;;;;;;;;;25.21;49.01;100217.72;4980488;28;19968;-88
2022/06/09 07:45:34;;;;;;;;;;;;;;;25.37;49.18;100215.88;4970811;28;19932;-88
2022/06/09 07:48:00;;;;;;;;;;;;;;;24.55;50.42;100208.00;4976083;28;20454;-85
2022/06/09 07:50:29;;;;;;;;;;;;;;;24.52;50.81;100202.22;4993199;28;20007;-86
2022/06/09 07:52:55;;;;;;;;;;;;;;;24.30;50.23;100202.28;4996757;28;19985;-89
2022/06/09 07:55:22;;;;;;;;;;;;;;;24.75;49.57;100206.50;4982178;28;19925;-89
2022/06/09 07:57:49;;;;;;;;;;;;;;;25.13;48.28;100209.97;5000822;28;19968;-90
2022/06/09 08:00:14;;;;;;;;;;;;;;;24.99;47.99;100210.44;4982838;28;19918;-86
2022/06/09 08:02:43;;;;;;;;;;;;;;;25.29;46.55;100211.72;4994461;28;19917;-89
2022/06/09 08:05:09;;;;;;;;;;;;;;;25.29;45.63;100211.72;4993330;28;19955;-87
2022/06/09 08:07:34;;;;;;;;;;;;;;;25.83;45.37;100208.53;4977911;28;19956;-87
2022/06/09 08:10:00;;;;;;;;;;;;;;;26.40;44.54;100208.56;4994105;28;20418;-86
2022/06/09 08:12:25;;;;;;;;;;;;;;;26.92;43.32;100210.97;4967760;28;20346;-89
2022/06/09 08:14:50;;;;;;;;;;;;;;;27.46;41.52;100206.63;4995420;28;19913;-87
2022/06/09 08:17:16;;;;;;;;;;;;;;;28.06;40.51;100206.53;5002895;28;19987;-88
2022/06/09 08:19:47;;;;;;;;;;;;;;;27.72;41.88;100209.25;4985602;28;20414;-88
2022/06/09 08:22:17;;;;;;;;;;;;;;;28.16;41.62;100223.03;4981544;28;19991;-89
2022/06/09 08:24:51;;;;;;;;;;;;;;;28.47;41.04;100216.44;5002001;28;19956;-90
2022/06/09 08:27:16;;;;;;;;;;;;;;;29.05;39.90;100217.19;5011108;28;19945;-86
2022/06/09 08:29:45;;;;;;;;;;;;;;;28.97;39.72;100220.63;4983458;28;19926;-90
2022/06/09 08:32:13;;;;;;;;;;;;;;;28.60;40.48;100215.75;4969219;28;19917;-88
2022/06/09 08:34:39;;;;;;;;;;;;;;;28.60;41.17;100222.13;4958896;28;19926;-89
2022/06/09 08:37:05;;;;;;;;;;;;;;;28.22;41.34;100226.59;4990198;28;19918;-86
2022/06/09 08:39:30;;;;;;;;;;;;;;;28.04;42.28;100225.34;4974033;28;19924;-88
2022/06/09 08:42:14;;;;;;;;;;;;;;;28.44;40.83;100222.53;4969450;28;19917;-87
2022/06/09 08:44:52;;;;;;;;;;;;;;;28.67;40.75;100215.44;4969668;28;19948;-86
2022/06/09 08:47:25;;;;;;;;;;;;;;;28.57;40.27;100216.34;4969719;28;19917;-89
2022/06/09 08:50:21;;;;;;;;;;;;;;;28.09;40.68;100213.44;4963829;28;20363;-88
2022/06/09 08:53:05;;;;;;;;;;;;;;;27.77;42.22;100220.28;4992092;28;19918;-89
2022/06/09 08:55:32;;;;;;;;;;;;;;;27.78;42.37;100219.16;4964364;28;19914;-88
2022/06/09 08:58:03;;;;;;;;;;;;;;;28.09;41.01;100216.19;4991150;28;19998;-87
2022/06/09 09:00:33;;;;;;;;;;;;;;;28.40;40.74;100212.06;4964734;28;19950;-89
2022/06/09 09:03:04;;;;;;;;;;;;;;;28.75;40.13;100201.78;4992197;28;19971;-92
2022/06/09 09:05:32;;;;;;;;;;;;;;;29.21;39.67;100203.19;4968930;28;19901;-85
2022/06/09 09:07:59;;;;;;;;;;;;;;;29.22;38.91;100188.22;4990943;28;20394;-87
2022/06/09 09:10:35;;;;;;;;;;;;;;;29.80;38.25;100190.75;4996476;28;20013;-91
2022/06/09 09:13:10;;;;;;;;;;;;;;;30.21;36.64;100189.28;5005548;28;19917;-90
2022/06/09 09:15:38;;;;;;;;;;;;;;;29.41;38.01;100193.81;4996469;28;20263;-87
2022/06/09 09:18:15;;;;;;;;;;;;;;;29.28;37.99;100189.81;5007017;28;19902;-90
2022/06/09 09:21:22;;;;;;;;;;;;;;;30.03;37.56;100190.94;5011486;28;19987;-95
2022/06/09 09:23:59;;;;;;;;;;;;;;;31.08;35.26;100182.13;4947638;28;19949;-88
2022/06/09 09:26:33;;;;;;;;;;;;;;;30.51;36.32;100185.16;4966750;28;19930;-93
2022/06/09 09:29:18;;;;;;;;;;;;;;;30.04;36.07;100190.66;4994835;28;19937;-92
2022/06/09 09:32:09;;;;;;;;;;;;;;;29.57;37.89;100189.69;4990606;28;19925;-94
2022/06/09 09:37:39;;;;;;;;;;;;;;;28.50;40.82;100179.94;4998102;28;19922;-96
2022/06/09 09:40:23;;;;;;;;;;;;;;;28.79;40.43;100193.72;4990788;28;19948;-94
2022/06/09 09:42:52;;;;;;;;;;;;;;;29.94;39.00;100187.22;4980227;28;19945;-88
2022/06/09 09:45:25;;;;;;;;;;;;;;;31.85;35.62;100183.19;4950519;28;20410;-91
2022/06/09 09:47:51;;;;;;;;;;;;;;;32.11;35.35;100186.19;4989892;28;19954;-87
2022/06/09 09:50:20;;;;;;;;;;;;;;;32.36;34.97;100193.88;4993527;28;19922;-92
2022/06/09 09:52:47;;;;;;;;;;;;;;;33.87;32.66;100187.28;4994763;28;19917;-91
2022/06/09 09:55:26;;;;;;;;;;;;;;;34.69;30.47;100178.94;4978435;28;19924;-92
2022/06/09 09:58:12;;;;;;;;;;;;;;;34.52;30.02;100181.78;4994331;28;20041;-86
2022/06/09 10:00:39;;;;;;;;;;;;;;;34.49;29.77;100188.84;4994561;28;20004;-89
2022/06/09 10:08:48;;;;;;;;;;;;;;;35.28;28.04;100173.38;4979965;28;19971;-87
2022/06/09 10:14:33;;;;;;;;;;;;;;;34.58;28.34;100167.31;4994688;28;20081;-95
2022/06/09 10:17:04;;;;;;;;;;;;;;;34.39;28.66;100169.66;4998995;28;20370;-91
2022/06/09 10:19:30;;;;;;;;;;;;;;;35.20;27.47;100168.66;4987717;28;19925;-90
2022/06/09 10:22:03;;;;;;;;;;;;;;;35.36;27.04;100152.13;4974127;28;19922;-85
2022/06/09 10:24:32;;;;;;;;;;;;;;;34.76;26.87;100156.09;4973699;28;19968;-92
2022/06/09 10:26:57;;;;;;;;;;;;;;;34.32;28.81;100160.97;4970316;28;20014;-89
2022/06/09 10:29:39;;;;;;;;;;;;;;;33.50;29.94;100158.06;4957481;28;19941;-92
2022/06/09 10:32:15;;;;;;;;;;;;;;;33.85;29.73;100159.72;5003862;28;19922;-84
2022/06/09 10:34:47;;;;;;;;;;;;;;;33.59;30.83;100153.34;4959781;28;20056;-88
2022/06/09 10:37:18;;;;;;;;;;;;;;;33.09;31.16;100148.22;4978203;28;20024;-94
2022/06/09 10:40:12;;;;;;;;;;;;;;;33.03;31.61;100149.47;4996920;28;20266;-92
2022/06/09 10:43:19;;;;;;;;;;;;;;;33.39;30.14;100158.41;4990898;28;19925;-91
2022/06/09 10:46:07;;;;;;;;;;;;;;;32.81;31.16;100148.44;4977596;28;19918;-92
2022/06/09 10:57:28;;;;;;;;;;;;;;;29.66;37.33;100151.91;4999392;28;19932;-86
2022/06/09 11:00:03;;;;;;;;;;;;;;;28.92;38.18;100136.88;4999261;28;19917;-93
2022/06/09 11:02:32;;;;;;;;;;;;;;;28.07;40.36;100149.34;4992638;28;19918;-93
2022/06/09 11:04:59;;;;;;;;;;;;;;;28.36;40.82;100144.66;4994518;28;19914;-92
2022/06/09 11:07:37;;;;;;;;;;;;;;;27.65;42.74;100139.69;4985099;28;19946;-92
2022/06/09 11:10:20;;;;;;;;;;;;;;;27.01;44.49;100146.97;4996034;28;19925;-89
2022/06/09 11:13:10;;;;;;;;;;;;;;;26.35;45.67;100135.00;4983798;28;19932;-94
2022/06/09 11:15:51;;;;;;;;;;;;;;;25.33;47.70;100135.78;4986770;28;19921;-91
2022/06/09 11:18:29;;;;;;;;;;;;;;;25.26;48.76;100143.47;5002743;28;20331;-92
2022/06/09 11:20:58;;;;;;;;;;;;;;;24.39;52.40;100141.09;4979688;28;19921;-88
2022/06/09 11:23:26;;;;;;;;;;;;;;;24.38;51.57;100141.38;4971290;28;19936;-90
2022/06/09 11:26:11;;;;;;;;;;;;;;;24.26;51.60;100133.34;4997321;28;19910;-90
2022/06/09 11:29:00;;;;;;;;;;;;;;;23.74;53.92;100132.13;4988086;28;19910;-94
2022/06/09 11:31:44;;;;;;;;;;;;;;;23.78;54.16;100138.72;4987496;28;19989;-92
2022/06/09 11:34:13;;;;;;;;;;;;;;;23.68;53.44;100130.38;4996922;28;19973;-92
2022/06/09 11:36:41;;;;;;;;;;;;;;;23.51;54.15;100132.41;4981250;28;19921;-88
2022/06/09 11:39:25;;;;;;;;;;;;;;;23.66;54.04;100124.31;4998296;28;19906;-90
2022/06/09 11:42:08;;;;;;;;;;;;;;;23.42;55.49;100133.97;5017933;28;19964;-90
2022/06/09 11:44:40;;;;;;;;;;;;;;;23.51;55.36;100130.50;4983255;28;19968;-90
2022/06/09 11:47:12;;;;;;;;;;;;;;;23.57;55.41;100129.44;5016727;28;19933;-90
2022/06/09 11:49:39;;;;;;;;;;;;;;;23.66;55.30;100129.81;4985333;28;19918;-89
2022/06/09 11:52:05;;;;;;;;;;;;;;;23.68;55.17;100124.88;4985109;28;19932;-87
2022/06/09 11:54:35;;;;;;;;;;;;;;;23.82;54.86;100121.75;4974994;28;19909;-89
2022/06/09 11:57:16;;;;;;;;;;;;;;;24.77;52.90;100116.31;4992498;28;19922;-91
2022/06/09 12:00:19;;;;;;;;;;;;;;;25.23;51.59;100124.75;5003730;28;19929;-86
2022/06/09 12:03:03;;;;;;;;;;;;;;;26.25;48.61;100108.31;4981264;28;19922;-92
2022/06/09 12:05:34;;;;;;;;;;;;;;;26.79;47.37;100111.50;4979034;28;19949;-93
2022/06/09 12:08:19;;;;;;;;;;;;;;;26.96;46.62;100117.47;4999611;28;19918;-93
2022/06/09 12:11:18;;;;;;;;;;;;;;;27.06;45.38;100119.34;4992982;28;20387;-95
2022/06/09 12:13:59;;;;;;;;;;;;;;;27.00;45.62;100118.56;4985488;28;19918;-89
2022/06/09 12:16:31;;;;;;;;;;;;;;;26.41;47.53;100111.84;4983375;28;20068;-92
2022/06/09 12:19:25;;;;;;;;;;;;;;;26.36;47.30;100119.28;5011932;28;19944;-93
2022/06/09 12:22:01;;;;;;;;;;;;;;;26.78;46.74;100116.16;4999158;28;19945;-86
2022/06/09 12:24:34;;;;;;;;;;;;;;;26.99;46.74;100116.06;4992314;28;19985;-91
2022/06/09 12:27:21;;;;;;;;;;;;;;;26.92;46.43;100111.69;5004286;28;19957;-93
2022/06/09 12:30:06;;;;;;;;;;;;;;;26.89;46.47;100109.50;5002357;28;19901;-95
2022/06/09 12:32:50;;;;;;;;;;;;;;;26.64;45.43;100110.41;4957980;28;20414;-88
2022/06/09 12:35:20;;;;;;;;;;;;;;;26.19;46.36;100108.59;4995560;28;19928;-87
2022/06/09 12:37:52;;;;;;;;;;;;;;;26.07;47.77;100112.47;4975996;28;20283;-86
2022/06/09 12:40:20;;;;;;;;;;;;;;;25.78;47.85;100114.94;4978779;28;19924;-88
2022/06/09 12:42:49;;;;;;;;;;;;;;;25.82;48.05;100106.94;4976061;28;19932;-93
2022/06/09 12:45:19;;;;;;;;;;;;;;;25.31;49.15;100107.75;4993000;28;19924;-89
2022/06/09 12:47:53;;;;;;;;;;;;;;;25.42;48.85;100106.63;4980612;28;19937;-89
2022/06/09 12:50:33;;;;;;;;;;;;;;;24.65;50.67;100108.28;4997511;28;20378;-90
2022/06/09 12:53:04;;;;;;;;;;;;;;;24.63;51.20;100116.81;4988650;28;19969;-90
2022/06/09 12:55:32;;;;;;;;;;;;;;;24.66;51.45;100120.13;4997819;28;19914;-90
2022/06/09 12:58:06;;;;;;;;;;;;;;;24.48;51.02;100113.16;4999864;28;19932;-89
2022/06/09 13:00:40;;;;;;;;;;;;;;;24.43;51.20;100122.16;4985768;28;19917;-90
2022/06/09 13:03:15;;;;;;;;;;;;;;;24.37;51.70;100114.97;5003083;28;19945;-88
2022/06/09 13:05:42;;;;;;;;;;;;;;;24.26;51.34;100118.78;4961290;28;20319;-88
2022/06/09 13:08:16;;;;;;;;;;;;;;;23.88;52.28;100117.94;4991163;28;19988;-84
2022/06/09 13:10:54;;;;;;;;;;;;;;;23.53;54.21;100119.25;4989976;28;19928;-87
2022/06/09 13:13:25;;;;;;;;;;;;;;;23.52;54.33;100118.41;4993032;28;19917;-85
2022/06/09 13:16:00;;;;;;;;;;;;;;;23.38;55.01;100118.00;4991349;28;20396;-88
2022/06/09 13:18:32;;;;;;;;;;;;;;;23.25;55.52;100129.41;4955467;28;19969;-87
2022/06/09 13:21:16;;;;;;;;;;;;;;;23.30;54.87;100121.22;4995213;28;19952;-89
2022/06/09 13:23:44;;;;;;;;;;;;;;;23.28;54.57;100126.13;5004726;28;19929;-83
2022/06/09 13:26:13;;;;;;;;;;;;;;;23.16;54.61;100123.53;4975273;28;19922;-84
2022/06/09 13:28:51;;;;;;;;;;;;;;;23.28;54.53;100128.88;4954821;28;19926;-84
2022/06/09 13:31:26;;;;;;;;;;;;;;;23.11;55.33;100122.69;4953235;28;19986;-84
2022/06/09 13:33:53;;;;;;;;;;;;;;;23.16;55.78;100114.50;4973222;28;20019;-85
2022/06/09 13:36:26;;;;;;;;;;;;;;;23.34;55.20;100116.88;5000612;28;20016;-84
2022/06/09 13:38:53;;;;;;;;;;;;;;;23.36;55.57;100103.72;4994647;28;20445;-86
2022/06/09 13:41:26;;;;;;;;;;;;;;;23.63;55.25;100105.63;4959945;28;20009;-84
2022/06/09 13:43:53;;;;;;;;;;;;;;;23.79;54.33;100107.44;4949433;28;19922;-84
2022/06/09 13:46:25;;;;;;;;;;;;;;;23.98;54.39;100105.13;4974715;28;19928;-85
2022/06/09 13:49:02;;;;;;;;;;;;;;;24.16;53.23;100111.28;4986267;28;19918;-85
2022/06/09 13:51:27;;;;;;;;;;;;;;;24.17;52.55;100116.50;4986451;28;19964;-84
2022/06/09 13:54:18;;;;;;;;;;;;;;;23.82;53.94;100105.28;4972309;28;19975;-86
2022/06/09 13:56:45;;;;;;;;;;;;;;;24.04;53.77;100103.22;4985646;28;19920;-85
2022/06/09 13:59:11;;;;;;;;;;;;;;;24.04;53.76;100100.47;4971853;28;19922;-90
2022/06/09 14:01:39;;;;;;;;;;;;;;;24.02;54.06;100089.78;4999346;28;20449;-91
2022/06/09 14:04:28;;;;;;;;;;;;;;;24.25;54.17;100098.69;4992843;28;20155;-93
2022/06/09 14:06:56;;;;;;;;;;;;;;;24.31;54.29;100102.31;4955579;28;19940;-90
2022/06/09 14:09:27;;;;;;;;;;;;;;;24.32;53.96;100092.97;4957584;28;19929;-86
2022/06/09 14:11:53;;;;;;;;;;;;;;;24.12;54.27;100100.00;4996173;28;20379;-87
2022/06/09 14:14:19;;;;;;;;;;;;;;;24.40;54.18;100100.72;4968918;28;19921;-86
2022/06/09 14:16:47;;;;;;;;;;;;;;;24.43;53.71;100100.19;4973308;28;20392;-88
2022/06/09 14:19:16;;;;;;;;;;;;;;;24.30;52.59;100100.66;4977279;28;19921;-89
2022/06/09 14:21:42;;;;;;;;;;;;;;;24.06;53.71;100095.56;4974381;28;20378;-86
2022/06/09 14:24:16;;;;;;;;;;;;;;;24.25;53.79;100084.97;4973215;28;20004;-86
2022/06/09 14:26:43;;;;;;;;;;;;;;;24.32;53.51;100091.06;4964049;28;19922;-89
2022/06/09 14:29:09;;;;;;;;;;;;;;;24.10;53.28;100091.19;4962724;28;19937;-86
2022/06/09 14:31:40;;;;;;;;;;;;;;;23.86;54.34;100078.94;4969085;28;19922;-87
2022/06/09 14:34:08;;;;;;;;;;;;;;;24.01;54.21;100076.31;4990784;28;19914;-90
2022/06/09 14:36:35;;;;;;;;;;;;;;;23.97;53.35;100070.50;4961177;28;19956;-86
2022/06/09 14:39:07;;;;;;;;;;;;;;;23.53;54.33;100075.34;4989804;28;19917;-87
2022/06/09 14:41:34;;;;;;;;;;;;;;;23.33;55.52;100076.00;4972006;28;19929;-84
2022/06/09 14:44:01;;;;;;;;;;;;;;;23.45;55.68;100067.59;4990230;28;19925;-87
2022/06/09 14:46:29;;;;;;;;;;;;;;;23.31;55.45;100070.75;4975963;28;19940;-84
2022/06/09 14:48:57;;;;;;;;;;;;;;;23.24;56.08;100067.41;4998309;28;19997;-87